sensor_id;sensor_type;location;lat;lon;timestamp;pressure;altitude;pressure_sealevel;temperature;humidity
29315;BME280;16320;53.954;9.506;2023-11-21T00:00:09;100905.88;;;8.96;100.00
29315;BME280;16320;53.954;9.506;2023-11-21T00:02:42;100895.47;;;8.94;100.00
29315;BME280;16320;53.954;9.506;2023-11-21T00:05:12;100893.91;;;8.90;100.00
29315;BME280;16320;53.954;9.506;2023-11-21T00:07:42;100894.81;;;8.89;100.00
29315;BME280;16320;53.954;9.506;2023-11-21T00:10:12;100894.81;;;8.89;100.00
29315;BME280;16320;53.954;9.506;2023-11-21T00:12:43;100897.41;;;8.89;100.00
29315;BME280;16320;53.954;9.506;2023-11-21T00:15:11;100897.66;;;8.83;100.00
29315;BME280;16320;53.954;9.506;2023-11-21T00:17:40;100895.84;;;8.85;100.00
29315;BME280;16320;53.954;9.506;2023-11-21T00:20:11;100907.31;;;8.83;100.00
29315;BME280;16320;53.954;9.506;2023-11-21T00:22:42;100898.66;;;8.81;100.00
29315;BME280;16320;53.954;9.506;2023-11-21T00:25:11;100904.94;;;8.76;100.00
29315;BME280;16320;53.954;9.506;2023-11-21T00:27:42;100905.00;;;8.75;100.00
29315;BME280;16320;53.954;9.506;2023-11-21T00:30:12;100899.81;;;8.73;100.00
29315;BME280;16320;53.954;9.506;2023-11-21T00:32:41;100898.31;;;8.68;100.00
29315;BME280;16320;53.954;9.506;2023-11-21T00:35:09;100899.16;;;8.68;100.00
29315;BME280;16320;53.954;9.506;2023-11-21T00:37:37;100895.53;;;8.71;100.00
29315;BME280;16320;53.954;9.506;2023-11-21T00:40:09;100897.31;;;8.70;100.00
29315;BME280;16320;53.954;9.506;2023-11-21T00:42:38;100902.03;;;8.62;100.00
29315;BME280;16320;53.954;9.506;2023-11-21T00:45:08;100903.81;;;8.61;100.00
29315;BME280;16320;53.954;9.506;2023-11-21T00:47:37;100904.63;;;8.62;100.00
29315;BME280;16320;53.954;9.506;2023-11-21T00:50:08;100903.81;;;8.61;100.00
29315;BME280;16320;53.954;9.506;2023-11-21T00:52:36;100909.28;;;8.55;100.00
29315;BME280;16320;53.954;9.506;2023-11-21T00:55:08;100924.88;;;8.58;100.00
29315;BME280;16320;53.954;9.506;2023-11-21T00:57:38;100932.78;;;8.57;100.00
29315;BME280;16320;53.954;9.506;2023-11-21T01:00:08;100931.06;;;8.56;100.00
29315;BME280;16320;53.954;9.506;2023-11-21T01:02:44;100935.50;;;8.54;100.00
29315;BME280;16320;53.954;9.506;2023-11-21T01:05:12;100946.06;;;8.52;100.00
29315;BME280;16320;53.954;9.506;2023-11-21T01:07:41;100951.28;;;8.52;100.00
29315;BME280;16320;53.954;9.506;2023-11-21T01:10:09;100957.38;;;8.53;100.00
29315;BME280;16320;53.954;9.506;2023-11-21T01:12:38;100964.44;;;8.51;100.00
29315;BME280;16320;53.954;9.506;2023-11-21T01:15:07;100968.81;;;8.50;100.00
29315;BME280;16320;53.954;9.506;2023-11-21T01:17:35;100977.47;;;8.52;100.00
29315;BME280;16320;53.954;9.506;2023-11-21T01:20:05;100971.69;;;8.44;100.00
29315;BME280;16320;53.954;9.506;2023-11-21T01:22:39;100972.69;;;8.40;100.00
29315;BME280;16320;53.954;9.506;2023-11-21T01:25:08;100974.38;;;8.41;100.00
29315;BME280;16320;53.954;9.506;2023-11-21T01:27:37;100986.56;;;8.42;100.00
29315;BME280;16320;53.954;9.506;2023-11-21T01:30:07;100989.34;;;8.37;100.00
29315;BME280;16320;53.954;9.506;2023-11-21T01:32:37;100985.78;;;8.40;100.00
29315;BME280;16320;53.954;9.506;2023-11-21T01:35:09;100985.84;;;8.38;100.00
29315;BME280;16320;53.954;9.506;2023-11-21T01:37:38;100992.81;;;8.38;100.00
29315;BME280;16320;53.954;9.506;2023-11-21T01:40:09;101003.28;;;8.38;100.00
29315;BME280;16320;53.954;9.506;2023-11-21T01:42:42;100995.44;;;8.38;100.00
29315;BME280;16320;53.954;9.506;2023-11-21T01:45:11;100998.03;;;8.38;100.00
29315;BME280;16320;53.954;9.506;2023-11-21T01:47:41;101005.06;;;8.37;100.00
29315;BME280;16320;53.954;9.506;2023-11-21T01:50:16;100998.97;;;8.37;100.00
29315;BME280;16320;53.954;9.506;2023-11-21T01:52:47;101002.50;;;8.36;100.00
29315;BME280;16320;53.954;9.506;2023-11-21T01:55:17;101013.09;;;8.33;100.00
29315;BME280;16320;53.954;9.506;2023-11-21T01:57:55;101010.50;;;8.31;100.00
29315;BME280;16320;53.954;9.506;2023-11-21T02:00:24;101011.50;;;8.29;100.00
29315;BME280;16320;53.954;9.506;2023-11-21T02:02:55;101009.91;;;8.24;100.00
29315;BME280;16320;53.954;9.506;2023-11-21T02:05:24;101015.25;;;8.21;100.00
29315;BME280;16320;53.954;9.506;2023-11-21T02:07:52;101018.75;;;8.20;100.00
29315;BME280;16320;53.954;9.506;2023-11-21T02:10:21;101018.06;;;8.15;100.00
29315;BME280;16320;53.954;9.506;2023-11-21T02:12:51;101017.28;;;8.13;100.00
29315;BME280;16320;53.954;9.506;2023-11-21T02:15:20;101019.44;;;8.02;100.00
29315;BME280;16320;53.954;9.506;2023-11-21T02:17:49;101019.56;;;7.99;100.00
29315;BME280;16320;53.954;9.506;2023-11-21T02:20:21;101036.13;;;7.99;100.00
29315;BME280;16320;53.954;9.506;2023-11-21T02:22:53;101037.88;;;7.99;100.00
29315;BME280;16320;53.954;9.506;2023-11-21T02:25:48;101039.75;;;7.95;100.00
29315;BME280;16320;53.954;9.506;2023-11-21T02:28:16;101036.19;;;7.98;100.00
29315;BME280;16320;53.954;9.506;2023-11-21T02:30:52;101032.63;;;7.99;100.00
29315;BME280;16320;53.954;9.506;2023-11-21T02:33:23;101031.78;;;7.98;100.00
29315;BME280;16320;53.954;9.506;2023-11-21T02:35:55;101038.78;;;7.98;100.00
29315;BME280;16320;53.954;9.506;2023-11-21T02:38:24;101036.19;;;7.98;100.00
29315;BME280;16320;53.954;9.506;2023-11-21T02:40:52;101039.69;;;7.97;100.00
29315;BME280;16320;53.954;9.506;2023-11-21T02:43:20;101048.44;;;7.96;100.00
29315;BME280;16320;53.954;9.506;2023-11-21T02:45:49;101045.06;;;7.92;100.00
29315;BME280;16320;53.954;9.506;2023-11-21T02:48:17;101054.69;;;7.92;100.00
29315;BME280;16320;53.954;9.506;2023-11-21T02:50:45;101061.75;;;7.90;100.00
29315;BME280;16320;53.954;9.506;2023-11-21T02:53:13;101066.84;;;7.93;100.00
29315;BME280;16320;53.954;9.506;2023-11-21T02:55:42;101061.75;;;7.90;100.00
29315;BME280;16320;53.954;9.506;2023-11-21T02:58:10;101063.53;;;7.87;100.00
29315;BME280;16320;53.954;9.506;2023-11-21T03:00:38;101073.06;;;7.90;100.00
29315;BME280;16320;53.954;9.506;2023-11-21T03:03:08;101077.25;;;7.94;100.00
29315;BME280;16320;53.954;9.506;2023-11-21T03:05:37;101086.19;;;7.88;100.00
29315;BME280;16320;53.954;9.506;2023-11-21T03:08:06;101082.69;;;7.90;100.00
29315;BME280;16320;53.954;9.506;2023-11-21T03:10:34;101093.13;;;7.90;100.00
29315;BME280;16320;53.954;9.506;2023-11-21T03:13:03;101092.16;;;7.92;100.00
29315;BME280;16320;53.954;9.506;2023-11-21T03:15:31;101097.28;;;7.95;100.00
29315;BME280;16320;53.954;9.506;2023-11-21T03:17:59;101100.69;;;7.97;100.00
29315;BME280;16320;53.954;9.506;2023-11-21T03:20:28;101107.69;;;7.97;100.00
29315;BME280;16320;53.954;9.506;2023-11-21T03:22:56;101108.50;;;7.99;100.00
29315;BME280;16320;53.954;9.506;2023-11-21T03:25:27;101119.06;;;7.96;100.00
29315;BME280;16320;53.954;9.506;2023-11-21T03:27:55;101123.28;;;8.00;100.00
29315;BME280;16320;53.954;9.506;2023-11-21T03:30:23;101127.59;;;8.01;100.00
29315;BME280;16320;53.954;9.506;2023-11-21T03:32:52;101125.75;;;8.04;100.00
29315;BME280;16320;53.954;9.506;2023-11-21T03:35:20;101132.72;;;8.04;100.00
29315;BME280;16320;53.954;9.506;2023-11-21T03:37:49;101133.66;;;8.03;100.00
29315;BME280;16320;53.954;9.506;2023-11-21T03:40:17;101138.94;;;8.01;100.00
29315;BME280;16320;53.954;9.506;2023-11-21T03:42:47;101140.63;;;8.02;100.00
29315;BME280;16320;53.954;9.506;2023-11-21T03:45:16;101143.19;;;8.04;100.00
29315;BME280;16320;53.954;9.506;2023-11-21T03:47:44;101141.59;;;8.00;100.00
29315;BME280;16320;53.954;9.506;2023-11-21T03:50:12;101144.16;;;8.01;100.00
29315;BME280;16320;53.954;9.506;2023-11-21T03:52:40;101143.38;;;7.99;100.00
29315;BME280;16320;53.954;9.506;2023-11-21T03:55:09;101150.25;;;8.02;100.00
29315;BME280;16320;53.954;9.506;2023-11-21T03:57:37;101147.72;;;7.99;100.00
29315;BME280;16320;53.954;9.506;2023-11-21T04:00:06;101158.00;;;8.05;100.00
29315;BME280;16320;53.954;9.506;2023-11-21T04:02:37;101156.44;;;7.99;100.00
29315;BME280;16320;53.954;9.506;2023-11-21T04:05:06;101158.88;;;8.04;100.00
29315;BME280;16320;53.954;9.506;2023-11-21T04:07:36;101162.44;;;8.03;100.00
29315;BME280;16320;53.954;9.506;2023-11-21T04:10:09;101170.22;;;8.04;100.00
29315;BME280;16320;53.954;9.506;2023-11-21T04:12:39;101175.41;;;8.06;100.00
29315;BME280;16320;53.954;9.506;2023-11-21T04:15:08;101184.09;;;8.06;100.00
29315;BME280;16320;53.954;9.506;2023-11-21T04:17:37;101186.78;;;8.05;100.00
29315;BME280;16320;53.954;9.506;2023-11-21T04:20:06;101186.78;;;8.05;100.00
29315;BME280;16320;53.954;9.506;2023-11-21T04:22:41;101183.34;;;8.03;100.00
29315;BME280;16320;53.954;9.506;2023-11-21T04:25:14;101188.69;;;8.00;100.00
29315;BME280;16320;53.954;9.506;2023-11-21T04:27:44;101193.19;;;7.96;100.00
29315;BME280;16320;53.954;9.506;2023-11-21T04:30:13;101196.63;;;7.97;100.00
29315;BME280;16320;53.954;9.506;2023-11-21T04:32:42;101205.44;;;7.94;100.00
29315;BME280;16320;53.954;9.506;2023-11-21T04:35:11;101202.84;;;7.93;100.00
29315;BME280;16320;53.954;9.506;2023-11-21T04:37:39;101208.97;;;7.93;100.00
29315;BME280;16320;53.954;9.506;2023-11-21T04:40:08;101221.03;;;7.97;100.00
29315;BME280;16320;53.954;9.506;2023-11-21T04:42:37;101219.22;;;7.99;100.00
29315;BME280;16320;53.954;9.506;2023-11-21T04:45:08;101228.72;;;8.02;100.00
29315;BME280;16320;53.954;9.506;2023-11-21T04:47:39;101226.16;;;8.00;100.00
29315;BME280;16320;53.954;9.506;2023-11-21T04:50:09;101230.53;;;8.00;100.00
29315;BME280;16320;53.954;9.506;2023-11-21T04:52:38;101232.22;;;8.01;100.00
29315;BME280;16320;53.954;9.506;2023-11-21T04:55:06;101230.53;;;8.00;100.00
29315;BME280;16320;53.954;9.506;2023-11-21T04:57:37;101233.16;;;8.00;100.00
29315;BME280;16320;53.954;9.506;2023-11-21T05:00:09;101232.19;;;8.02;100.00
29315;BME280;16320;53.954;9.506;2023-11-21T05:02:40;101233.16;;;8.00;100.00
29315;BME280;16320;53.954;9.506;2023-11-21T05:05:11;101240.03;;;8.02;100.00
29315;BME280;16320;53.954;9.506;2023-11-21T05:07:41;101242.91;;;7.95;100.00
29315;BME280;16320;53.954;9.506;2023-11-21T05:10:10;101255.06;;;7.96;100.00
29315;BME280;16320;53.954;9.506;2023-11-21T05:12:41;101254.97;;;7.99;100.00
29315;BME280;16320;53.954;9.506;2023-11-21T05:15:11;101262.13;;;7.94;100.00
29315;BME280;16320;53.954;9.506;2023-11-21T05:17:42;101269.03;;;7.96;100.00
29315;BME280;16320;53.954;9.506;2023-11-21T05:20:13;101282.13;;;7.96;100.00
29315;BME280;16320;53.954;9.506;2023-11-21T05:22:53;101282.97;;;7.97;100.00
29315;BME280;16320;53.954;9.506;2023-11-21T05:25:21;101278.63;;;7.96;100.00
29315;BME280;16320;53.954;9.506;2023-11-21T05:27:49;101287.28;;;7.98;100.00
29315;BME280;16320;53.954;9.506;2023-11-21T05:30:17;101286.38;;;7.99;100.00
29315;BME280;16320;53.954;9.506;2023-11-21T05:32:46;101299.53;;;7.96;100.00
29315;BME280;16320;53.954;9.506;2023-11-21T05:35:14;101293.44;;;7.97;100.00
29315;BME280;16320;53.954;9.506;2023-11-21T05:37:45;101288.19;;;7.97;100.00
29315;BME280;16320;53.954;9.506;2023-11-21T05:40:15;101298.66;;;7.97;100.00
29315;BME280;16320;53.954;9.506;2023-11-21T05:42:44;101303.00;;;7.98;100.00
29315;BME280;16320;53.954;9.506;2023-11-21T05:45:15;101306.59;;;7.94;100.00
29315;BME280;16320;53.954;9.506;2023-11-21T05:47:46;101313.56;;;7.95;100.00
29315;BME280;16320;53.954;9.506;2023-11-21T05:50:16;101313.63;;;7.92;100.00
29315;BME280;16320;53.954;9.506;2023-11-21T05:52:46;101313.72;;;7.88;100.00
29315;BME280;16320;53.954;9.506;2023-11-21T05:55:15;101318.06;;;7.90;100.00
29315;BME280;16320;53.954;9.506;2023-11-21T05:57:44;101321.59;;;7.88;100.00
29315;BME280;16320;53.954;9.506;2023-11-21T06:00:15;101325.19;;;7.84;100.00
29315;BME280;16320;53.954;9.506;2023-11-21T06:02:49;101327.09;;;7.79;100.00
29315;BME280;16320;53.954;9.506;2023-11-21T06:05:22;101330.50;;;7.81;100.00
29315;BME280;16320;53.954;9.506;2023-11-21T06:07:53;101331.56;;;7.76;100.00
29315;BME280;16320;53.954;9.506;2023-11-21T06:10:23;101339.28;;;7.80;100.00
29315;BME280;16320;53.954;9.506;2023-11-21T06:12:53;101338.34;;;7.81;100.00
29315;BME280;16320;53.954;9.506;2023-11-21T06:15:22;101348.81;;;7.81;100.00
29315;BME280;16320;53.954;9.506;2023-11-21T06:17:51;101351.44;;;7.81;100.00
29315;BME280;16320;53.954;9.506;2023-11-21T06:20:21;101363.69;;;7.79;100.00
29315;BME280;16320;53.954;9.506;2023-11-21T06:22:50;101368.84;;;7.82;100.00
29315;BME280;16320;53.954;9.506;2023-11-21T06:25:19;101372.34;;;7.81;100.00
29315;BME280;16320;53.954;9.506;2023-11-21T06:27:48;101376.63;;;7.84;100.00
29315;BME280;16320;53.954;9.506;2023-11-21T06:30:17;101382.72;;;7.84;100.00
29315;BME280;16320;53.954;9.506;2023-11-21T06:32:47;101384.53;;;7.82;100.00
29315;BME280;16320;53.954;9.506;2023-11-21T06:35:17;101384.63;;;7.79;100.00
29315;BME280;16320;53.954;9.506;2023-11-21T06:37:45;101389.84;;;7.79;100.00
29315;BME280;16320;53.954;9.506;2023-11-21T06:40:19;101396.00;;;7.78;100.00
29315;BME280;16320;53.954;9.506;2023-11-21T06:42:48;101403.84;;;7.78;100.00
29315;BME280;16320;53.954;9.506;2023-11-21T06:45:17;101409.06;;;7.78;100.00
29315;BME280;16320;53.954;9.506;2023-11-21T06:47:47;101415.16;;;7.79;100.00
29315;BME280;16320;53.954;9.506;2023-11-21T06:50:18;101428.19;;;7.80;100.00
29315;BME280;16320;53.954;9.506;2023-11-21T06:52:48;101426.47;;;7.79;100.00
29315;BME280;16320;53.954;9.506;2023-11-21T06:55:17;101432.63;;;7.78;100.00
29315;BME280;16320;53.954;9.506;2023-11-21T06:57:47;101440.53;;;7.75;100.00
29315;BME280;16320;53.954;9.506;2023-11-21T07:00:18;101447.47;;;7.76;100.00
29315;BME280;16320;53.954;9.506;2023-11-21T07:02:46;101454.44;;;7.77;100.00
29315;BME280;16320;53.954;9.506;2023-11-21T07:05:52;101458.94;;;7.72;100.00
29315;BME280;16320;53.954;9.506;2023-11-21T07:08:20;101463.16;;;7.76;100.00
29315;BME280;16320;53.954;9.506;2023-11-21T07:10:49;101471.84;;;7.78;100.00
29315;BME280;16320;53.954;9.506;2023-11-21T07:13:17;101478.03;;;7.74;100.00
29315;BME280;16320;53.954;9.506;2023-11-21T07:15:46;101478.94;;;7.73;100.00
29315;BME280;16320;53.954;9.506;2023-11-21T07:18:16;101475.25;;;7.80;100.00
29315;BME280;16320;53.954;9.506;2023-11-21T07:20:44;101470.28;;;7.71;100.00
29315;BME280;16320;53.954;9.506;2023-11-21T07:23:13;101474.53;;;7.75;100.00
29315;BME280;16320;53.954;9.506;2023-11-21T07:25:42;101471.84;;;7.78;100.00
29315;BME280;16320;53.954;9.506;2023-11-21T07:28:10;101468.38;;;7.76;100.00
29315;BME280;16320;53.954;9.506;2023-11-21T07:30:38;101471.84;;;7.78;100.00
29315;BME280;16320;53.954;9.506;2023-11-21T07:33:06;101477.25;;;7.72;100.00
29315;BME280;16320;53.954;9.506;2023-11-21T07:35:35;101481.59;;;7.72;100.00
29315;BME280;16320;53.954;9.506;2023-11-21T07:38:04;101483.31;;;7.73;100.00
29315;BME280;16320;53.954;9.506;2023-11-21T07:40:32;101486.75;;;7.75;100.00
29315;BME280;16320;53.954;9.506;2023-11-21T07:43:00;101488.47;;;7.76;100.00
29315;BME280;16320;53.954;9.506;2023-11-21T07:45:28;101488.50;;;7.74;100.00
29315;BME280;16320;53.954;9.506;2023-11-21T07:47:56;101485.16;;;7.69;100.00
29315;BME280;16320;53.954;9.506;2023-11-21T07:50:25;101496.31;;;7.76;100.00
29315;BME280;16320;53.954;9.506;2023-11-21T07:52:55;101505.84;;;7.78;100.00
29315;BME280;16320;53.954;9.506;2023-11-21T07:55:23;101511.84;;;7.82;100.00
29315;BME280;16320;53.954;9.506;2023-11-21T07:57:54;101522.25;;;7.83;100.00
29315;BME280;16320;53.954;9.506;2023-11-21T08:00:22;101526.69;;;7.80;100.00
29315;BME280;16320;53.954;9.506;2023-11-21T08:02:51;101527.56;;;7.80;100.00
29315;BME280;16320;53.954;9.506;2023-11-21T08:05:19;101526.81;;;7.77;100.00
29315;BME280;16320;53.954;9.506;2023-11-21T08:07:57;101527.66;;;7.77;100.00
29315;BME280;16320;53.954;9.506;2023-11-21T08:10:26;101538.13;;;7.77;100.00
29315;BME280;16320;53.954;9.506;2023-11-21T08:12:54;101539.00;;;7.76;100.00
29315;BME280;16320;53.954;9.506;2023-11-21T08:15:24;101552.97;;;7.77;100.00
29315;BME280;16320;53.954;9.506;2023-11-21T08:17:53;101545.97;;;7.77;100.00
29315;BME280;16320;53.954;9.506;2023-11-21T08:20:23;101551.28;;;7.74;100.00
29315;BME280;16320;53.954;9.506;2023-11-21T08:22:51;101559.88;;;7.78;100.00
29315;BME280;16320;53.954;9.506;2023-11-21T08:25:20;101560.88;;;7.74;100.00
29315;BME280;16320;53.954;9.506;2023-11-21T08:27:49;101560.84;;;7.75;100.00
29315;BME280;16320;53.954;9.506;2023-11-21T08:30:18;101561.69;;;7.76;100.00
29315;BME280;16320;53.954;9.506;2023-11-21T08:32:49;101558.97;;;7.80;100.00
29315;BME280;16320;53.954;9.506;2023-11-21T08:35:18;101566.00;;;7.78;100.00
29315;BME280;16320;53.954;9.506;2023-11-21T08:37:47;101570.28;;;7.81;100.00
29315;BME280;16320;53.954;9.506;2023-11-21T08:40:16;101572.00;;;7.82;100.00
29315;BME280;16320;53.954;9.506;2023-11-21T08:42:44;101578.75;;;7.89;100.00
29315;BME280;16320;53.954;9.506;2023-11-21T08:45:15;101574.22;;;7.96;100.00
29315;BME280;16320;53.954;9.506;2023-11-21T08:47:44;101584.69;;;7.96;100.00
29315;BME280;16320;53.954;9.506;2023-11-21T08:50:12;101593.38;;;7.98;100.00
29315;BME280;16320;53.954;9.506;2023-11-21T08:52:44;101594.09;;;8.03;100.00
29315;BME280;16320;53.954;9.506;2023-11-21T08:55:13;101610.53;;;8.08;100.00
29315;BME280;16320;53.954;9.506;2023-11-21T08:57:43;101612.19;;;8.11;100.00
29315;BME280;16320;53.954;9.506;2023-11-21T09:00:12;101613.81;;;8.16;100.00
29315;BME280;16320;53.954;9.506;2023-11-21T09:02:45;101614.69;;;8.15;100.00
29315;BME280;16320;53.954;9.506;2023-11-21T09:05:15;101625.88;;;8.20;100.00
29315;BME280;16320;53.954;9.506;2023-11-21T09:07:43;101631.22;;;8.17;100.00
29315;BME280;16320;53.954;9.506;2023-11-21T09:10:13;101625.03;;;8.20;100.00
29315;BME280;16320;53.954;9.506;2023-11-21T09:12:41;101628.63;;;8.17;100.00
29315;BME280;16320;53.954;9.506;2023-11-21T09:15:10;101626.00;;;8.17;100.00
29315;BME280;16320;53.954;9.506;2023-11-21T09:17:38;101626.81;;;8.19;100.00
29315;BME280;16320;53.954;9.506;2023-11-21T09:20:10;101632.94;;;8.18;100.00
29315;BME280;16320;53.954;9.506;2023-11-21T09:22:38;101627.63;;;8.21;100.00
29315;BME280;16320;53.954;9.506;2023-11-21T09:25:07;101632.59;;;8.31;100.00
29315;BME280;16320;53.954;9.506;2023-11-21T09:27:36;101635.94;;;8.36;100.00
29315;BME280;16320;53.954;9.506;2023-11-21T09:30:07;101635.06;;;8.37;100.00
29315;BME280;16320;53.954;9.506;2023-11-21T09:32:40;101642.06;;;8.35;100.00
29315;BME280;16320;53.954;9.506;2023-11-21T09:35:12;101642.84;;;8.40;100.00
29315;BME280;16320;53.954;9.506;2023-11-21T09:37:44;101648.09;;;8.38;100.00
29315;BME280;16320;53.954;9.506;2023-11-21T09:40:15;101649.81;;;8.39;100.00
29315;BME280;16320;53.954;9.506;2023-11-21T09:42:56;101656.88;;;8.36;100.00
29315;BME280;16320;53.954;9.506;2023-11-21T09:45:31;101663.69;;;8.41;100.00
29315;BME280;16320;53.954;9.506;2023-11-21T09:48:01;101660.31;;;8.38;100.00
29315;BME280;16320;53.954;9.506;2023-11-21T09:50:33;101663.78;;;8.40;100.00
29315;BME280;16320;53.954;9.506;2023-11-21T09:53:22;101676.88;;;8.40;100.00
29315;BME280;16320;53.954;9.506;2023-11-21T09:55:53;101673.44;;;8.36;100.00
29315;BME280;16320;53.954;9.506;2023-11-21T09:58:24;101669.22;;;8.32;100.00
29315;BME280;16320;53.954;9.506;2023-11-21T10:00:54;101671.88;;;8.31;100.00
29315;BME280;16320;53.954;9.506;2023-11-21T10:03:24;101672.56;;;8.37;100.00
29315;BME280;16320;53.954;9.506;2023-11-21T10:05:56;101662.94;;;8.38;100.00
29315;BME280;16320;53.954;9.506;2023-11-21T10:08:27;101673.22;;;8.46;100.00
29315;BME280;16320;53.954;9.506;2023-11-21T10:11:14;101668.94;;;8.41;100.00
29315;BME280;16320;53.954;9.506;2023-11-21T10:13:44;101671.47;;;8.46;100.00
29315;BME280;16320;53.954;9.506;2023-11-21T10:16:16;101674.75;;;8.53;100.00
29315;BME280;16320;53.954;9.506;2023-11-21T10:18:51;101687.81;;;8.54;100.00
29315;BME280;16320;53.954;9.506;2023-11-21T10:21:34;101684.16;;;8.61;100.00
29315;BME280;16320;53.954;9.506;2023-11-21T10:24:05;101692.72;;;8.67;100.00
29315;BME280;16320;53.954;9.506;2023-11-21T10:26:34;101694.47;;;8.68;100.00
29315;BME280;16320;53.954;9.506;2023-11-21T10:29:16;101690.03;;;8.70;100.00
29315;BME280;16320;53.954;9.506;2023-11-21T10:31:45;101685.59;;;8.72;100.00
29315;BME280;16320;53.954;9.506;2023-11-21T10:34:20;101684.75;;;8.71;100.00
29315;BME280;16320;53.954;9.506;2023-11-21T10:36:48;101685.59;;;8.72;100.00
29315;BME280;16320;53.954;9.506;2023-11-21T10:39:20;101687.31;;;8.73;100.00
29315;BME280;16320;53.954;9.506;2023-11-21T10:41:51;101688.94;;;8.77;100.00
29315;BME280;16320;53.954;9.506;2023-11-21T10:44:19;101681.38;;;8.68;100.00
29315;BME280;16320;53.954;9.506;2023-11-21T10:46:50;101689.03;;;8.74;100.00
29315;BME280;16320;53.954;9.506;2023-11-21T10:49:21;101684.81;;;8.68;100.00
29315;BME280;16320;53.954;9.506;2023-11-21T10:51:55;101682.50;;;8.57;100.00
29315;BME280;16320;53.954;9.506;2023-11-21T10:54:25;101684.31;;;8.55;100.00
29315;BME280;16320;53.954;9.506;2023-11-21T10:56:58;101696.59;;;8.53;100.00
29315;BME280;16320;53.954;9.506;2023-11-21T10:59:30;101685.34;;;8.50;100.00
29315;BME280;16320;53.954;9.506;2023-11-21T11:04:49;101698.28;;;8.54;100.00
29315;BME280;16320;53.954;9.506;2023-11-21T11:07:17;101693.06;;;8.54;100.00
29315;BME280;16320;53.954;9.506;2023-11-21T11:09:50;101703.53;;;8.54;100.00
29315;BME280;16320;53.954;9.506;2023-11-21T11:12:18;101702.00;;;8.47;100.00
29315;BME280;16320;53.954;9.506;2023-11-21T11:14:49;101703.72;;;8.48;100.00
29315;BME280;16320;53.954;9.506;2023-11-21T11:17:19;101714.16;;;8.50;100.00
29315;BME280;16320;53.954;9.506;2023-11-21T11:19:48;101713.31;;;8.48;100.00
29315;BME280;16320;53.954;9.506;2023-11-21T11:22:34;101709.94;;;8.44;100.00
29315;BME280;16320;53.954;9.506;2023-11-21T11:28:20;101730.09;;;8.39;100.00
29315;BME280;16320;53.954;9.506;2023-11-21T11:34:43;101743.06;;;8.45;100.00
29315;BME280;16320;53.954;9.506;2023-11-21T11:37:15;101742.72;;;8.57;100.00
29315;BME280;16320;53.954;9.506;2023-11-21T11:39:43;101748.56;;;8.67;100.00
29315;BME280;16320;53.954;9.506;2023-11-21T11:42:16;101738.97;;;8.68;100.00
29315;BME280;16320;53.954;9.506;2023-11-21T11:44:48;101745.03;;;8.70;100.00
29315;BME280;16320;53.954;9.506;2023-11-21T11:47:29;101752.25;;;8.61;100.00
29315;BME280;16320;53.954;9.506;2023-11-21T11:52:39;101739.53;;;8.46;100.00
29315;BME280;16320;53.954;9.506;2023-11-21T11:55:10;101738.84;;;8.38;100.00
29315;BME280;16320;53.954;9.506;2023-11-21T11:57:40;101743.41;;;8.31;100.00
29315;BME280;16320;53.954;9.506;2023-11-21T12:03:04;101752.13;;;8.30;100.00
29315;BME280;16320;53.954;9.506;2023-11-21T12:05:36;101757.47;;;8.27;100.00
29315;BME280;16320;53.954;9.506;2023-11-21T12:08:07;101759.06;;;8.33;100.00
29315;BME280;16320;53.954;9.506;2023-11-21T12:10:38;101765.09;;;8.35;100.00
29315;BME280;16320;53.954;9.506;2023-11-21T12:13:09;101764.19;;;8.37;100.00
29315;BME280;16320;53.954;9.506;2023-11-21T12:15:39;101770.25;;;8.38;100.00
29315;BME280;16320;53.954;9.506;2023-11-21T12:18:09;101770.38;;;8.33;100.00
29315;BME280;16320;53.954;9.506;2023-11-21T12:20:38;101774.03;;;8.28;100.00
29315;BME280;16320;53.954;9.506;2023-11-21T12:23:10;101770.75;;;8.19;100.00
29315;BME280;16320;53.954;9.506;2023-11-21T12:25:41;101766.41;;;8.18;100.00
29315;BME280;16320;53.954;9.506;2023-11-21T12:28:10;101767.38;;;8.14;100.00
29315;BME280;16320;53.954;9.506;2023-11-21T12:30:39;101784.97;;;8.09;100.00
29315;BME280;16320;53.954;9.506;2023-11-21T12:33:09;101781.53;;;8.05;100.00
29315;BME280;16320;53.954;9.506;2023-11-21T12:35:41;101771.34;;;7.95;100.00
29315;BME280;16320;53.954;9.506;2023-11-21T12:38:11;101780.09;;;7.94;100.00
29315;BME280;16320;53.954;9.506;2023-11-21T12:40:40;101799.41;;;7.88;100.00
29315;BME280;16320;53.954;9.506;2023-11-21T12:43:08;101805.63;;;7.82;100.00
29315;BME280;16320;53.954;9.506;2023-11-21T12:45:36;101814.41;;;7.80;100.00
29315;BME280;16320;53.954;9.506;2023-11-21T12:48:07;101808.44;;;7.73;100.00
29315;BME280;16320;53.954;9.506;2023-11-21T12:50:39;101817.28;;;7.69;100.00
29315;BME280;16320;53.954;9.506;2023-11-21T12:53:12;101817.41;;;7.63;100.00
29315;BME280;16320;53.954;9.506;2023-11-21T12:55:40;101827.88;;;7.63;100.00
29315;BME280;16320;53.954;9.506;2023-11-21T12:58:11;101831.28;;;7.65;100.00
29315;BME280;16320;53.954;9.506;2023-11-21T13:00:47;101837.53;;;7.59;100.00
29315;BME280;16320;53.954;9.506;2023-11-21T13:03:16;101841.91;;;7.59;100.00
29315;BME280;16320;53.954;9.506;2023-11-21T13:05:48;101847.94;;;7.62;100.00
29315;BME280;16320;53.954;9.506;2023-11-21T13:08:20;101845.28;;;7.64;100.00
29315;BME280;16320;53.954;9.506;2023-11-21T13:10:55;101857.44;;;7.65;100.00
29315;BME280;16320;53.954;9.506;2023-11-21T13:13:27;101861.78;;;7.66;100.00
29315;BME280;16320;53.954;9.506;2023-11-21T13:16:03;101867.00;;;7.67;100.00
29315;BME280;16320;53.954;9.506;2023-11-21T13:18:32;101874.81;;;7.69;100.00
29315;BME280;16320;53.954;9.506;2023-11-21T13:21:03;101874.84;;;7.67;100.00